Time,TemperatureF,DewpointF,PressureIn,WindDirection,WindDirectionDegrees,WindSpeedMPH,WindSpeedGustMPH,Humidity,HourlyPrecipIn,Conditions,Clouds,dailyrainin,SoftwareType,DateUTC
2013-01-30 00:02:00,25.0,19.0,29.80,North,350,23.0,31.0,79,-99.99,,,-99.99,,2013-01-30 06:02:00,
2013-01-30 00:11:00,25.0,19.0,29.80,North,350,25.0,30.0,79,-99.99,,,-99.99,,2013-01-30 06:11:00,
2013-01-30 00:21:00,25.0,19.0,29.80,North,350,25.0,30.0,79,-99.99,,,-99.99,,2013-01-30 06:21:00,
2013-01-30 00:32:00,23.0,19.0,29.81,North,360,21.0,29.0,85,-99.99,,,-99.99,,2013-01-30 06:32:00,
2013-01-30 00:42:00,23.0,19.0,29.81,North,360,21.0,29.0,85,-99.99,,,-99.99,,2013-01-30 06:42:00,
2013-01-30 00:51:00,23.0,19.0,29.81,North,350,20.0,29.0,85,-99.99,,,-99.99,,2013-01-30 06:51:00,
2013-01-30 01:02:00,23.0,19.0,29.81,North,350,20.0,29.0,85,-99.99,,,-99.99,,2013-01-30 07:02:00,
2013-01-30 01:11:00,23.0,19.0,29.81,North,350,20.0,29.0,85,-99.99,,,-99.99,,2013-01-30 07:11:00,
2013-01-30 01:21:00,23.0,19.0,29.81,North,350,20.0,29.0,85,-99.99,,,-99.99,,2013-01-30 07:21:00,
2013-01-30 01:32:00,23.0,19.0,29.78,North,350,23.0,32.0,85,-99.99,,,-99.99,,2013-01-30 07:32:00,
2013-01-30 01:42:00,23.0,19.0,29.78,North,350,23.0,32.0,85,-99.99,,,-99.99,,2013-01-30 07:42:00,
2013-01-30 01:52:00,23.0,18.0,29.79,North,350,21.0,29.0,79,-99.99,,,-99.99,,2013-01-30 07:52:00,
2013-01-30 02:01:00,23.0,18.0,29.79,North,350,21.0,29.0,79,-99.99,,,-99.99,,2013-01-30 08:01:00,
2013-01-30 02:11:00,23.0,18.0,29.79,North,350,21.0,29.0,79,-99.99,,,-99.99,,2013-01-30 08:11:00,
2013-01-30 02:21:00,23.0,18.0,29.79,North,350,21.0,29.0,79,-99.99,,,-99.99,,2013-01-30 08:21:00,
2013-01-30 02:32:00,23.0,18.0,29.80,North,350,21.0,29.0,79,-99.99,,,-99.99,,2013-01-30 08:32:00,
2013-01-30 02:42:00,23.0,18.0,29.80,North,350,21.0,29.0,79,-99.99,,,-99.99,,2013-01-30 08:42:00,
2013-01-30 02:52:00,21.0,16.0,29.80,North,350,18.0,30.0,79,-99.99,,,-99.99,,2013-01-30 08:52:00,
2013-01-30 03:01:00,21.0,16.0,29.80,North,350,18.0,30.0,79,-99.99,,,-99.99,,2013-01-30 09:01:00,
2013-01-30 03:11:00,21.0,16.0,29.79,NNW,340,20.0,28.0,79,-99.99,,,-99.99,,2013-01-30 09:11:00,
2013-01-30 03:21:00,21.0,16.0,29.79,NNW,340,20.0,28.0,79,-99.99,,,-99.99,,2013-01-30 09:21:00,
2013-01-30 03:32:00,21.0,16.0,29.80,North,350,21.0,30.0,79,-99.99,,,-99.99,,2013-01-30 09:32:00,
2013-01-30 03:42:00,21.0,16.0,29.80,North,350,21.0,30.0,79,-99.99,,,-99.99,,2013-01-30 09:42:00,
2013-01-30 03:51:00,21.0,16.0,29.81,North,350,20.0,25.0,79,-99.99,,,-99.99,,2013-01-30 09:51:00,
2013-01-30 04:01:00,21.0,16.0,29.81,North,350,20.0,25.0,79,-99.99,,,-99.99,,2013-01-30 10:01:00,
2013-01-30 04:11:00,21.0,16.0,29.81,North,350,22.0,27.0,79,-99.99,,,-99.99,,2013-01-30 10:11:00,
2013-01-30 04:21:00,21.0,16.0,29.81,North,350,22.0,27.0,79,-99.99,,,-99.99,,2013-01-30 10:21:00,
2013-01-30 04:32:00,21.0,16.0,29.82,North,350,17.0,28.0,79,-99.99,,,-99.99,,2013-01-30 10:32:00,
2013-01-30 04:42:00,21.0,16.0,29.82,North,350,17.0,28.0,79,-99.99,,,-99.99,,2013-01-30 10:42:00,
2013-01-30 04:52:00,21.0,14.0,29.82,North,350,18.0,25.0,73,-99.99,,,-99.99,,2013-01-30 10:52:00,
2013-01-30 05:02:00,21.0,14.0,29.82,North,350,18.0,25.0,73,-99.99,,,-99.99,,2013-01-30 11:02:00,
2013-01-30 05:11:00,21.0,14.0,29.82,NNW,340,23.0,28.0,73,-99.99,,,-99.99,,2013-01-30 11:11:00,
2013-01-30 05:22:00,21.0,14.0,29.82,NNW,340,23.0,28.0,73,-99.99,,,-99.99,,2013-01-30 11:22:00,
2013-01-30 05:32:00,21.0,14.0,29.82,North,350,21.0,28.0,73,-99.99,,,-99.99,,2013-01-30 11:32:00,
2013-01-30 05:42:00,21.0,14.0,29.82,North,350,21.0,28.0,73,-99.99,,,-99.99,,2013-01-30 11:42:00,
2013-01-30 05:52:00,21.0,12.0,29.82,NNW,340,22.0,27.0,67,-99.99,,,-99.99,,2013-01-30 11:52:00,
2013-01-30 06:02:00,21.0,12.0,29.82,NNW,340,22.0,27.0,67,-99.99,,,-99.99,,2013-01-30 12:02:00,
2013-01-30 06:12:00,21.0,14.0,29.82,North,350,14.0,25.0,73,-99.99,,,-99.99,,2013-01-30 12:12:00,
2013-01-30 06:22:00,21.0,14.0,29.82,North,350,14.0,25.0,73,-99.99,,,-99.99,,2013-01-30 12:22:00,
2013-01-30 06:32:00,19.0,12.0,29.81,NW,320,20.0,24.0,73,-99.99,,,-99.99,,2013-01-30 12:32:00,
2013-01-30 06:42:00,19.0,12.0,29.81,NW,320,20.0,24.0,73,-99.99,,,-99.99,,2013-01-30 12:42:00,
2013-01-30 07:03:00,19.0,12.0,29.82,NW,320,15.0,24.0,73,-99.99,,,-99.99,,2013-01-30 13:03:00,
2013-01-30 07:12:00,19.0,12.0,29.82,NW,320,15.0,24.0,73,-99.99,,,-99.99,,2013-01-30 13:12:00,
2013-01-30 07:23:00,19.0,12.0,29.83,NNW,330,23.0,30.0,73,-99.99,,,-99.99,,2013-01-30 13:23:00,
2013-01-30 07:32:00,18.0,10.0,29.83,NNW,330,20.0,25.0,72,-99.99,,,-99.99,,2013-01-30 13:32:00,
2013-01-30 07:42:00,18.0,10.0,29.83,NNW,330,20.0,25.0,72,-99.99,,,-99.99,,2013-01-30 13:42:00,
2013-01-30 07:52:00,18.0,12.0,29.84,NNW,330,15.0,23.0,78,-99.99,,,-99.99,,2013-01-30 13:52:00,
2013-01-30 08:02:00,18.0,12.0,29.84,NNW,330,15.0,23.0,78,-99.99,,,-99.99,,2013-01-30 14:02:00,
2013-01-30 08:12:00,18.0,12.0,29.84,NNW,330,15.0,23.0,78,-99.99,,,-99.99,,2013-01-30 14:12:00,
2013-01-30 08:23:00,18.0,12.0,29.84,NNW,330,15.0,23.0,78,-99.99,,,-99.99,,2013-01-30 14:23:00,
2013-01-30 08:33:00,19.0,12.0,29.84,NW,310,16.0,21.0,73,-99.99,,,-99.99,,2013-01-30 14:33:00,
2013-01-30 08:43:00,19.0,12.0,29.84,NW,310,16.0,21.0,73,-99.99,,,-99.99,,2013-01-30 14:43:00,
2013-01-30 08:53:00,18.0,10.0,29.84,NNW,330,17.0,25.0,72,-99.99,,,-99.99,,2013-01-30 14:53:00,
2013-01-30 09:03:00,18.0,10.0,29.84,NNW,330,17.0,25.0,72,-99.99,,,-99.99,,2013-01-30 15:03:00,
2013-01-30 09:12:00,18.0,10.0,29.84,NNW,330,21.0,32.0,72,-99.99,,,-99.99,,2013-01-30 15:12:00,
2013-01-30 09:23:00,18.0,10.0,29.84,NNW,330,21.0,32.0,72,-99.99,,,-99.99,,2013-01-30 15:23:00,
2013-01-30 09:33:00,18.0,10.0,29.84,NW,310,16.0,27.0,72,-99.99,,,-99.99,,2013-01-30 15:33:00,
2013-01-30 09:43:00,18.0,10.0,29.84,NW,310,16.0,27.0,72,-99.99,,,-99.99,,2013-01-30 15:43:00,
2013-01-30 09:52:00,18.0,10.0,29.84,NW,310,22.0,28.0,72,-99.99,,,-99.99,,2013-01-30 15:52:00,
2013-01-30 10:03:00,18.0,10.0,29.84,NW,310,22.0,28.0,72,-99.99,,,-99.99,,2013-01-30 16:03:00,
2013-01-30 10:12:00,18.0,10.0,29.84,NW,320,21.0,29.0,72,-99.99,,,-99.99,,2013-01-30 16:12:00,
2013-01-30 10:23:00,18.0,10.0,29.84,NW,320,21.0,29.0,72,-99.99,,,-99.99,,2013-01-30 16:23:00,
2013-01-30 10:32:00,18.0,10.0,29.85,NW,320,20.0,28.0,72,-99.99,,,-99.99,,2013-01-30 16:32:00,
2013-01-30 10:42:00,18.0,10.0,29.85,NW,320,20.0,28.0,72,-99.99,,,-99.99,,2013-01-30 16:42:00,
2013-01-30 10:52:00,18.0,9.0,29.85,NW,310,21.0,27.0,67,-99.99,,,-99.99,,2013-01-30 16:52:00,
2013-01-30 11:02:00,18.0,9.0,29.85,NW,310,21.0,27.0,67,-99.99,,,-99.99,,2013-01-30 17:02:00,
2013-01-30 11:12:00,18.0,10.0,29.86,NW,320,16.0,22.0,72,-99.99,,,-99.99,,2013-01-30 17:12:00,
2013-01-30 11:22:00,18.0,10.0,29.86,NW,320,16.0,22.0,72,-99.99,,,-99.99,,2013-01-30 17:22:00,
2013-01-30 11:32:00,18.0,9.0,29.86,NW,320,17.0,23.0,67,-99.99,,,-99.99,,2013-01-30 17:32:00,
2013-01-30 11:42:00,18.0,9.0,29.86,NW,320,17.0,23.0,67,-99.99,,,-99.99,,2013-01-30 17:42:00,
2013-01-30 11:53:00,18.0,9.0,29.86,NW,320,18.0,25.0,67,-99.99,,,-99.99,,2013-01-30 17:53:00,
2013-01-30 12:02:00,18.0,9.0,29.86,NW,320,18.0,25.0,67,-99.99,,,-99.99,,2013-01-30 18:02:00,
2013-01-30 12:12:00,18.0,9.0,29.86,NNW,330,17.0,27.0,67,-99.99,,,-99.99,,2013-01-30 18:12:00,
2013-01-30 12:22:00,18.0,9.0,29.86,NNW,330,17.0,27.0,67,-99.99,,,-99.99,,2013-01-30 18:22:00,
2013-01-30 12:33:00,18.0,9.0,29.85,NW,310,15.0,22.0,67,-99.99,,,-99.99,,2013-01-30 18:33:00,
2013-01-30 12:42:00,18.0,9.0,29.85,NW,310,15.0,22.0,67,-99.99,,,-99.99,,2013-01-30 18:42:00,
2013-01-30 13:02:00,18.0,10.0,29.85,WNW,300,18.0,24.0,72,-99.99,,,-99.99,,2013-01-30 19:02:00,
2013-01-30 13:12:00,16.0,9.0,29.85,NW,310,17.0,25.0,72,-99.99,,,-99.99,,2013-01-30 19:12:00,
2013-01-30 13:22:00,16.0,9.0,29.85,NW,310,17.0,25.0,72,-99.99,,,-99.99,,2013-01-30 19:22:00,
2013-01-30 13:32:00,18.0,9.0,29.84,NW,310,20.0,24.0,67,-99.99,,,-99.99,,2013-01-30 19:32:00,
2013-01-30 13:43:00,18.0,9.0,29.84,NW,310,20.0,24.0,67,-99.99,,,-99.99,,2013-01-30 19:43:00,
2013-01-30 13:52:00,18.0,9.0,29.83,WNW,300,20.0,-999.0,67,-99.99,,,-99.99,,2013-01-30 19:52:00,
2013-01-30 14:03:00,18.0,9.0,29.83,WNW,300,20.0,-999.0,67,-99.99,,,-99.99,,2013-01-30 20:03:00,
2013-01-30 14:12:00,18.0,9.0,29.83,WNW,300,20.0,25.0,67,-99.99,,,-99.99,,2013-01-30 20:12:00,
2013-01-30 14:22:00,18.0,9.0,29.83,WNW,300,20.0,25.0,67,-99.99,,,-99.99,,2013-01-30 20:22:00,
2013-01-30 14:33:00,18.0,10.0,29.83,WNW,300,15.0,24.0,72,-99.99,,,-99.99,,2013-01-30 20:33:00,
2013-01-30 14:42:00,18.0,10.0,29.83,WNW,300,15.0,24.0,72,-99.99,,,-99.99,,2013-01-30 20:42:00,
2013-01-30 14:52:00,16.0,9.0,29.83,WNW,290,21.0,27.0,72,-99.99,,,-99.99,,2013-01-30 20:52:00,
2013-01-30 15:03:00,16.0,9.0,29.83,WNW,290,21.0,27.0,72,-99.99,,,-99.99,,2013-01-30 21:03:00,
2013-01-30 15:12:00,16.0,9.0,29.84,WNW,300,21.0,28.0,72,-99.99,,,-99.99,,2013-01-30 21:12:00,
2013-01-30 15:23:00,16.0,9.0,29.84,WNW,300,21.0,28.0,72,-99.99,,,-99.99,,2013-01-30 21:23:00,
2013-01-30 15:32:00,16.0,7.0,29.84,NW,310,22.0,27.0,67,-99.99,,,-99.99,,2013-01-30 21:32:00,
2013-01-30 15:42:00,16.0,7.0,29.84,NW,310,22.0,27.0,67,-99.99,,,-99.99,,2013-01-30 21:42:00,
2013-01-30 15:52:00,16.0,7.0,29.84,WNW,290,22.0,28.0,67,-99.99,,,-99.99,,2013-01-30 21:52:00,
2013-01-30 16:03:00,16.0,7.0,29.84,WNW,290,22.0,28.0,67,-99.99,,,-99.99,,2013-01-30 22:03:00,
2013-01-30 16:12:00,14.0,7.0,29.84,WNW,300,18.0,25.0,72,-99.99,,,-99.99,,2013-01-30 22:12:00,
2013-01-30 16:22:00,14.0,7.0,29.84,WNW,300,18.0,25.0,72,-99.99,,,-99.99,,2013-01-30 22:22:00,
2013-01-30 16:32:00,16.0,7.0,29.85,WNW,300,18.0,23.0,67,-99.99,,,-99.99,,2013-01-30 22:32:00,
2013-01-30 16:42:00,16.0,7.0,29.85,WNW,300,18.0,23.0,67,-99.99,,,-99.99,,2013-01-30 22:42:00,
2013-01-30 16:52:00,16.0,7.0,29.85,NW,310,16.0,22.0,67,-99.99,,,-99.99,,2013-01-30 22:52:00,
2013-01-30 17:02:00,16.0,7.0,29.85,NW,310,16.0,22.0,67,-99.99,,,-99.99,,2013-01-30 23:02:00,
2013-01-30 17:12:00,12.0,5.0,29.85,WNW,300,16.0,23.0,72,-99.99,,,-99.99,,2013-01-30 23:12:00,
2013-01-30 17:22:00,12.0,5.0,29.85,WNW,300,16.0,23.0,72,-99.99,,,-99.99,,2013-01-30 23:22:00,
2013-01-30 17:32:00,12.0,3.0,29.86,WNW,300,18.0,-999.0,66,-99.99,,,-99.99,,2013-01-30 23:32:00,
2013-01-30 17:42:00,12.0,3.0,29.86,WNW,300,18.0,-999.0,66,-99.99,,,-99.99,,2013-01-30 23:42:00,
2013-01-30 17:52:00,10.0,3.0,29.86,WNW,300,18.0,25.0,72,-99.99,,,-99.99,,2013-01-30 23:52:00,
2013-01-30 18:02:00,10.0,3.0,29.86,WNW,300,18.0,25.0,72,-99.99,,,-99.99,,2013-01-31 00:02:00,
2013-01-30 18:11:00,10.0,3.0,29.86,WNW,300,18.0,25.0,72,-99.99,,,-99.99,,2013-01-31 00:11:00,
2013-01-30 18:22:00,10.0,3.0,29.87,NW,310,15.0,21.0,72,-99.99,,,-99.99,,2013-01-31 00:22:00,
2013-01-30 18:32:00,10.0,3.0,29.87,NW,310,15.0,21.0,72,-99.99,,,-99.99,,2013-01-31 00:32:00,
2013-01-30 18:42:00,10.0,3.0,29.87,WNW,290,14.0,18.0,72,-99.99,,,-99.99,,2013-01-31 00:42:00,
2013-01-30 18:52:00,9.0,1.0,29.88,WNW,290,13.0,20.0,71,-99.99,,,-99.99,,2013-01-31 00:52:00,
2013-01-30 19:02:00,9.0,1.0,29.88,WNW,290,13.0,20.0,71,-99.99,,,-99.99,,2013-01-31 01:02:00,
2013-01-30 19:12:00,9.0,1.0,29.88,WNW,290,14.0,-999.0,71,-99.99,,,-99.99,,2013-01-31 01:12:00,
2013-01-30 19:21:00,9.0,1.0,29.88,WNW,290,14.0,-999.0,71,-99.99,,,-99.99,,2013-01-31 01:21:00,
2013-01-30 19:32:00,9.0,1.0,29.88,WNW,290,16.0,21.0,71,-99.99,,,-99.99,,2013-01-31 01:32:00,
2013-01-30 19:42:00,9.0,1.0,29.88,WNW,290,16.0,21.0,71,-99.99,,,-99.99,,2013-01-31 01:42:00,
2013-01-30 19:52:00,7.0,0.0,29.89,WNW,290,15.0,21.0,71,-99.99,,,-99.99,,2013-01-31 01:52:00,
2013-01-30 20:01:00,7.0,0.0,29.89,WNW,290,15.0,21.0,71,-99.99,,,-99.99,,2013-01-31 02:01:00,
2013-01-30 20:11:00,7.0,0.0,29.89,WNW,290,17.0,22.0,71,-99.99,,,-99.99,,2013-01-31 02:11:00,
2013-01-30 20:21:00,7.0,0.0,29.89,WNW,290,17.0,22.0,71,-99.99,,,-99.99,,2013-01-31 02:21:00,
2013-01-30 20:32:00,7.0,0.0,29.89,WNW,290,17.0,22.0,71,-99.99,,,-99.99,,2013-01-31 02:32:00,
2013-01-30 20:42:00,7.0,0.0,29.89,WNW,290,17.0,22.0,71,-99.99,,,-99.99,,2013-01-31 02:42:00,
2013-01-30 20:52:00,7.0,0.0,29.89,WNW,290,17.0,22.0,71,-99.99,,,-99.99,,2013-01-31 02:52:00,
2013-01-30 21:03:00,7.0,0.0,29.88,WNW,290,20.0,-999.0,71,-99.99,,,-99.99,,2013-01-31 03:03:00,
2013-01-30 21:11:00,7.0,0.0,29.88,NW,310,15.0,-999.0,71,-99.99,,,-99.99,,2013-01-31 03:11:00,
2013-01-30 21:21:00,7.0,0.0,29.88,NW,310,15.0,-999.0,71,-99.99,,,-99.99,,2013-01-31 03:21:00,
2013-01-30 21:32:00,5.0,-2.0,29.88,WNW,300,18.0,-999.0,71,-99.99,,,-99.99,,2013-01-31 03:32:00,
2013-01-30 21:41:00,5.0,-2.0,29.88,WNW,300,18.0,-999.0,71,-99.99,,,-99.99,,2013-01-31 03:41:00,
2013-01-30 21:51:00,5.0,-2.0,29.89,WNW,300,14.0,21.0,71,-99.99,,,-99.99,,2013-01-31 03:51:00,
2013-01-30 22:02:00,5.0,-2.0,29.89,WNW,300,14.0,21.0,71,-99.99,,,-99.99,,2013-01-31 04:02:00,
2013-01-30 22:11:00,5.0,-2.0,29.90,WNW,300,15.0,20.0,71,-99.99,,,-99.99,,2013-01-31 04:11:00,
2013-01-30 22:22:00,5.0,-2.0,29.90,WNW,300,15.0,20.0,71,-99.99,,,-99.99,,2013-01-31 04:22:00,
2013-01-30 22:31:00,3.0,-2.0,29.90,WNW,300,14.0,21.0,77,-99.99,,,-99.99,,2013-01-31 04:31:00,
2013-01-30 22:41:00,3.0,-2.0,29.90,WNW,300,14.0,21.0,77,-99.99,,,-99.99,,2013-01-31 04:41:00,
2013-01-30 22:51:00,3.0,-4.0,29.90,WNW,300,15.0,20.0,71,-99.99,,,-99.99,,2013-01-31 04:51:00,
2013-01-30 23:03:00,3.0,-4.0,29.90,WNW,300,15.0,20.0,71,-99.99,,,-99.99,,2013-01-31 05:03:00,
2013-01-30 23:11:00,3.0,-2.0,29.91,WNW,300,12.0,17.0,77,-99.99,,,-99.99,,2013-01-31 05:11:00,
2013-01-30 23:22:00,3.0,-2.0,29.91,WNW,300,12.0,17.0,77,-99.99,,,-99.99,,2013-01-31 05:22:00,
2013-01-30 23:32:00,3.0,-2.0,29.91,WNW,300,12.0,17.0,77,-99.99,,,-99.99,,2013-01-31 05:32:00,
2013-01-30 23:41:00,3.0,-6.0,29.91,NW,310,16.0,-999.0,65,-99.99,,,-99.99,,2013-01-31 05:41:00,
2013-01-30 23:52:00,3.0,-6.0,29.91,NW,310,16.0,-999.0,65,-99.99,,,-99.99,,2013-01-31 05:52:00,